sensor_id;sensor_type;location;lat;lon;timestamp;P1;durP1;ratioP1;P2;durP2;ratioP2
76113;SDS011;64845;53.086;5.834;2023-06-14T00:01:34;5.32;;;2.03;;
76113;SDS011;64845;53.086;5.834;2023-06-14T00:04:00;5.00;;;2.08;;
76113;SDS011;64845;53.086;5.834;2023-06-14T00:06:30;6.57;;;2.10;;
76113;SDS011;64845;53.086;5.834;2023-06-14T00:08:55;4.95;;;1.73;;
76113;SDS011;64845;53.086;5.834;2023-06-14T00:11:21;6.28;;;2.00;;
76113;SDS011;64845;53.086;5.834;2023-06-14T00:13:46;6.35;;;2.05;;
76113;SDS011;64845;53.086;5.834;2023-06-14T00:16:12;11.00;;;2.20;;
76113;SDS011;64845;53.086;5.834;2023-06-14T00:18:37;4.20;;;1.73;;
76113;SDS011;64845;53.086;5.834;2023-06-14T00:21:03;6.03;;;1.98;;
76113;SDS011;64845;53.086;5.834;2023-06-14T00:23:31;4.90;;;1.83;;
76113;SDS011;64845;53.086;5.834;2023-06-14T00:25:56;5.72;;;1.98;;
76113;SDS011;64845;53.086;5.834;2023-06-14T00:28:22;6.15;;;1.92;;
76113;SDS011;64845;53.086;5.834;2023-06-14T00:30:47;7.28;;;1.92;;
76113;SDS011;64845;53.086;5.834;2023-06-14T00:33:13;7.03;;;2.03;;
76113;SDS011;64845;53.086;5.834;2023-06-14T00:35:39;5.65;;;1.80;;
76113;SDS011;64845;53.086;5.834;2023-06-14T00:38:04;3.63;;;1.85;;
76113;SDS011;64845;53.086;5.834;2023-06-14T00:40:30;6.78;;;2.08;;
76113;SDS011;64845;53.086;5.834;2023-06-14T00:42:55;4.15;;;1.95;;
76113;SDS011;64845;53.086;5.834;2023-06-14T00:45:21;3.75;;;2.17;;
76113;SDS011;64845;53.086;5.834;2023-06-14T00:47:46;5.15;;;1.80;;
76113;SDS011;64845;53.086;5.834;2023-06-14T00:50:17;3.17;;;1.58;;
76113;SDS011;64845;53.086;5.834;2023-06-14T00:52:45;9.52;;;2.30;;
76113;SDS011;64845;53.086;5.834;2023-06-14T00:55:10;4.75;;;1.60;;
76113;SDS011;64845;53.086;5.834;2023-06-14T00:57:36;5.65;;;2.03;;
76113;SDS011;64845;53.086;5.834;2023-06-14T01:00:03;9.10;;;2.15;;
76113;SDS011;64845;53.086;5.834;2023-06-14T01:02:33;6.60;;;2.08;;
76113;SDS011;64845;53.086;5.834;2023-06-14T01:04:59;4.43;;;2.05;;
76113;SDS011;64845;53.086;5.834;2023-06-14T01:13:27;5.85;;;1.80;;
76113;SDS011;64845;53.086;5.834;2023-06-14T01:15:54;6.32;;;2.25;;
76113;SDS011;64845;53.086;5.834;2023-06-14T01:18:22;4.85;;;1.77;;
76113;SDS011;64845;53.086;5.834;2023-06-14T01:20:50;5.47;;;2.00;;
76113;SDS011;64845;53.086;5.834;2023-06-14T01:23:18;5.70;;;1.70;;
76113;SDS011;64845;53.086;5.834;2023-06-14T01:25:44;6.90;;;1.73;;
76113;SDS011;64845;53.086;5.834;2023-06-14T01:28:10;6.03;;;1.80;;
76113;SDS011;64845;53.086;5.834;2023-06-14T01:30:38;6.88;;;2.30;;
76113;SDS011;64845;53.086;5.834;2023-06-14T01:33:09;4.20;;;1.88;;
76113;SDS011;64845;53.086;5.834;2023-06-14T01:35:41;4.95;;;1.45;;
76113;SDS011;64845;53.086;5.834;2023-06-14T01:38:08;5.38;;;1.63;;
76113;SDS011;64845;53.086;5.834;2023-06-14T01:40:34;5.88;;;1.77;;
76113;SDS011;64845;53.086;5.834;2023-06-14T01:43:00;6.43;;;1.83;;
76113;SDS011;64845;53.086;5.834;2023-06-14T01:45:27;2.88;;;1.50;;
76113;SDS011;64845;53.086;5.834;2023-06-14T01:47:53;6.75;;;1.67;;
76113;SDS011;64845;53.086;5.834;2023-06-14T01:50:20;5.35;;;1.77;;
76113;SDS011;64845;53.086;5.834;2023-06-14T01:52:46;3.88;;;1.70;;
76113;SDS011;64845;53.086;5.834;2023-06-14T01:55:11;2.85;;;1.63;;
76113;SDS011;64845;53.086;5.834;2023-06-14T01:57:37;3.78;;;1.60;;
76113;SDS011;64845;53.086;5.834;2023-06-14T02:00:03;6.10;;;1.73;;
76113;SDS011;64845;53.086;5.834;2023-06-14T02:02:29;7.72;;;1.73;;
76113;SDS011;64845;53.086;5.834;2023-06-14T02:04:54;3.97;;;1.80;;
76113;SDS011;64845;53.086;5.834;2023-06-14T02:07:22;6.90;;;1.63;;
76113;SDS011;64845;53.086;5.834;2023-06-14T02:09:48;6.35;;;1.88;;
76113;SDS011;64845;53.086;5.834;2023-06-14T02:12:13;5.47;;;1.85;;
76113;SDS011;64845;53.086;5.834;2023-06-14T02:14:39;5.32;;;1.55;;
76113;SDS011;64845;53.086;5.834;2023-06-14T02:17:04;5.00;;;1.90;;
76113;SDS011;64845;53.086;5.834;2023-06-14T02:19:31;10.25;;;1.70;;
76113;SDS011;64845;53.086;5.834;2023-06-14T02:21:56;3.58;;;1.60;;
76113;SDS011;64845;53.086;5.834;2023-06-14T02:24:22;4.72;;;1.83;;
76113;SDS011;64845;53.086;5.834;2023-06-14T02:26:48;4.47;;;1.50;;
76113;SDS011;64845;53.086;5.834;2023-06-14T02:29:14;5.85;;;1.67;;
76113;SDS011;64845;53.086;5.834;2023-06-14T02:31:41;5.90;;;1.60;;
76113;SDS011;64845;53.086;5.834;2023-06-14T02:34:06;4.63;;;1.70;;
76113;SDS011;64845;53.086;5.834;2023-06-14T02:36:33;4.57;;;1.60;;
76113;SDS011;64845;53.086;5.834;2023-06-14T02:38:59;3.65;;;1.90;;
76113;SDS011;64845;53.086;5.834;2023-06-14T02:41:25;4.55;;;2.17;;
76113;SDS011;64845;53.086;5.834;2023-06-14T02:43:51;5.70;;;1.80;;
76113;SDS011;64845;53.086;5.834;2023-06-14T02:46:16;7.10;;;1.90;;
76113;SDS011;64845;53.086;5.834;2023-06-14T02:48:42;5.25;;;1.67;;
76113;SDS011;64845;53.086;5.834;2023-06-14T02:51:08;4.75;;;1.77;;
76113;SDS011;64845;53.086;5.834;2023-06-14T02:53:34;4.60;;;1.80;;
76113;SDS011;64845;53.086;5.834;2023-06-14T02:56:00;5.32;;;1.98;;
76113;SDS011;64845;53.086;5.834;2023-06-14T02:58:26;4.88;;;1.90;;
76113;SDS011;64845;53.086;5.834;2023-06-14T03:00:52;3.00;;;1.80;;
76113;SDS011;64845;53.086;5.834;2023-06-14T03:03:20;6.03;;;2.08;;
76113;SDS011;64845;53.086;5.834;2023-06-14T03:05:47;7.75;;;2.00;;
76113;SDS011;64845;53.086;5.834;2023-06-14T03:08:14;4.78;;;1.70;;
76113;SDS011;64845;53.086;5.834;2023-06-14T03:10:50;5.47;;;1.67;;
76113;SDS011;64845;53.086;5.834;2023-06-14T03:13:16;2.72;;;1.90;;
76113;SDS011;64845;53.086;5.834;2023-06-14T03:15:42;3.90;;;1.70;;
76113;SDS011;64845;53.086;5.834;2023-06-14T03:18:10;5.10;;;1.90;;
76113;SDS011;64845;53.086;5.834;2023-06-14T03:20:37;4.40;;;1.80;;
76113;SDS011;64845;53.086;5.834;2023-06-14T03:23:03;6.60;;;1.83;;
76113;SDS011;64845;53.086;5.834;2023-06-14T03:25:29;6.45;;;2.05;;
76113;SDS011;64845;53.086;5.834;2023-06-14T03:27:56;7.47;;;1.88;;
76113;SDS011;64845;53.086;5.834;2023-06-14T03:30:21;5.75;;;2.08;;
76113;SDS011;64845;53.086;5.834;2023-06-14T03:32:47;5.97;;;2.05;;
76113;SDS011;64845;53.086;5.834;2023-06-14T03:35:12;5.10;;;1.90;;
76113;SDS011;64845;53.086;5.834;2023-06-14T03:37:42;5.95;;;2.05;;
76113;SDS011;64845;53.086;5.834;2023-06-14T03:40:12;4.45;;;1.83;;
76113;SDS011;64845;53.086;5.834;2023-06-14T03:42:38;3.28;;;2.10;;
76113;SDS011;64845;53.086;5.834;2023-06-14T03:45:04;5.15;;;1.90;;
76113;SDS011;64845;53.086;5.834;2023-06-14T03:47:31;5.90;;;1.88;;
76113;SDS011;64845;53.086;5.834;2023-06-14T03:49:56;3.67;;;1.67;;
76113;SDS011;64845;53.086;5.834;2023-06-14T03:52:22;4.70;;;2.00;;
76113;SDS011;64845;53.086;5.834;2023-06-14T03:54:48;5.60;;;2.30;;
76113;SDS011;64845;53.086;5.834;2023-06-14T03:57:14;6.25;;;2.10;;
76113;SDS011;64845;53.086;5.834;2023-06-14T03:59:40;6.43;;;2.08;;
76113;SDS011;64845;53.086;5.834;2023-06-14T04:02:06;5.55;;;2.00;;
76113;SDS011;64845;53.086;5.834;2023-06-14T04:04:32;6.78;;;2.03;;
76113;SDS011;64845;53.086;5.834;2023-06-14T04:07:00;4.18;;;1.77;;
76113;SDS011;64845;53.086;5.834;2023-06-14T04:09:28;4.32;;;1.88;;
76113;SDS011;64845;53.086;5.834;2023-06-14T04:11:56;9.95;;;2.40;;
76113;SDS011;64845;53.086;5.834;2023-06-14T04:14:21;8.10;;;2.33;;
76113;SDS011;64845;53.086;5.834;2023-06-14T04:16:47;11.15;;;2.00;;
76113;SDS011;64845;53.086;5.834;2023-06-14T04:19:13;6.00;;;2.13;;
76113;SDS011;64845;53.086;5.834;2023-06-14T04:21:39;4.82;;;2.13;;
76113;SDS011;64845;53.086;5.834;2023-06-14T04:24:05;4.22;;;2.35;;
76113;SDS011;64845;53.086;5.834;2023-06-14T04:26:30;8.07;;;2.03;;
76113;SDS011;64845;53.086;5.834;2023-06-14T04:28:58;6.38;;;2.28;;
76113;SDS011;64845;53.086;5.834;2023-06-14T04:31:27;5.90;;;2.25;;
76113;SDS011;64845;53.086;5.834;2023-06-14T04:33:54;7.03;;;2.15;;
76113;SDS011;64845;53.086;5.834;2023-06-14T04:36:19;4.00;;;1.95;;
76113;SDS011;64845;53.086;5.834;2023-06-14T04:38:45;5.72;;;2.08;;
76113;SDS011;64845;53.086;5.834;2023-06-14T04:41:11;3.28;;;1.65;;
76113;SDS011;64845;53.086;5.834;2023-06-14T04:43:37;9.05;;;2.60;;
76113;SDS011;64845;53.086;5.834;2023-06-14T04:46:05;3.83;;;2.00;;
76113;SDS011;64845;53.086;5.834;2023-06-14T04:48:38;4.68;;;2.40;;
76113;SDS011;64845;53.086;5.834;2023-06-14T04:51:05;4.32;;;2.40;;
76113;SDS011;64845;53.086;5.834;2023-06-14T04:53:32;4.85;;;2.13;;
76113;SDS011;64845;53.086;5.834;2023-06-14T04:55:57;16.75;;;2.88;;
76113;SDS011;64845;53.086;5.834;2023-06-14T04:58:22;2.85;;;2.38;;
76113;SDS011;64845;53.086;5.834;2023-06-14T05:00:48;6.60;;;2.47;;
76113;SDS011;64845;53.086;5.834;2023-06-14T05:03:13;4.78;;;2.28;;
76113;SDS011;64845;53.086;5.834;2023-06-14T05:05:41;7.55;;;2.20;;
76113;SDS011;64845;53.086;5.834;2023-06-14T05:08:07;6.93;;;2.78;;
76113;SDS011;64845;53.086;5.834;2023-06-14T05:10:33;6.47;;;2.40;;
76113;SDS011;64845;53.086;5.834;2023-06-14T05:13:01;2.90;;;2.22;;
76113;SDS011;64845;53.086;5.834;2023-06-14T05:15:26;4.85;;;2.50;;
76113;SDS011;64845;53.086;5.834;2023-06-14T05:17:54;3.03;;;2.10;;
76113;SDS011;64845;53.086;5.834;2023-06-14T05:20:24;6.65;;;2.45;;
76113;SDS011;64845;53.086;5.834;2023-06-14T05:22:50;6.10;;;2.42;;
76113;SDS011;64845;53.086;5.834;2023-06-14T05:25:17;5.95;;;2.67;;
76113;SDS011;64845;53.086;5.834;2023-06-14T05:27:42;5.65;;;2.22;;
76113;SDS011;64845;53.086;5.834;2023-06-14T05:30:08;4.85;;;2.70;;
76113;SDS011;64845;53.086;5.834;2023-06-14T05:32:34;7.57;;;2.28;;
76113;SDS011;64845;53.086;5.834;2023-06-14T05:34:59;3.88;;;2.53;;
76113;SDS011;64845;53.086;5.834;2023-06-14T05:37:25;5.07;;;2.50;;
76113;SDS011;64845;53.086;5.834;2023-06-14T05:39:50;7.32;;;2.45;;
76113;SDS011;64845;53.086;5.834;2023-06-14T05:42:16;8.68;;;2.45;;
76113;SDS011;64845;53.086;5.834;2023-06-14T05:44:41;6.65;;;2.50;;
76113;SDS011;64845;53.086;5.834;2023-06-14T05:47:06;4.10;;;2.45;;
76113;SDS011;64845;53.086;5.834;2023-06-14T05:49:32;4.20;;;2.45;;
76113;SDS011;64845;53.086;5.834;2023-06-14T05:51:57;11.70;;;2.90;;
76113;SDS011;64845;53.086;5.834;2023-06-14T05:54:22;11.48;;;5.57;;
76113;SDS011;64845;53.086;5.834;2023-06-14T05:56:48;9.80;;;3.42;;
76113;SDS011;64845;53.086;5.834;2023-06-14T05:59:13;5.18;;;2.40;;
76113;SDS011;64845;53.086;5.834;2023-06-14T06:01:38;5.15;;;2.60;;
76113;SDS011;64845;53.086;5.834;2023-06-14T06:04:05;7.50;;;2.65;;
76113;SDS011;64845;53.086;5.834;2023-06-14T06:06:31;4.22;;;2.40;;
76113;SDS011;64845;53.086;5.834;2023-06-14T06:08:57;8.15;;;2.80;;
76113;SDS011;64845;53.086;5.834;2023-06-14T06:11:23;12.43;;;2.88;;
76113;SDS011;64845;53.086;5.834;2023-06-14T06:13:49;7.15;;;2.28;;
76113;SDS011;64845;53.086;5.834;2023-06-14T06:16:14;6.68;;;2.53;;
76113;SDS011;64845;53.086;5.834;2023-06-14T06:18:40;9.23;;;2.80;;
76113;SDS011;64845;53.086;5.834;2023-06-14T06:21:05;7.10;;;2.97;;
76113;SDS011;64845;53.086;5.834;2023-06-14T06:23:31;7.35;;;2.40;;
76113;SDS011;64845;53.086;5.834;2023-06-14T06:25:56;3.85;;;2.70;;
76113;SDS011;64845;53.086;5.834;2023-06-14T06:28:22;7.03;;;2.50;;
76113;SDS011;64845;53.086;5.834;2023-06-14T06:30:47;3.75;;;2.40;;
76113;SDS011;64845;53.086;5.834;2023-06-14T06:33:12;9.60;;;2.88;;
76113;SDS011;64845;53.086;5.834;2023-06-14T06:35:39;4.82;;;2.30;;
76113;SDS011;64845;53.086;5.834;2023-06-14T06:38:04;3.45;;;2.33;;
76113;SDS011;64845;53.086;5.834;2023-06-14T06:40:30;5.80;;;2.45;;
76113;SDS011;64845;53.086;5.834;2023-06-14T06:42:55;6.47;;;2.15;;
76113;SDS011;64845;53.086;5.834;2023-06-14T06:45:21;6.82;;;2.53;;
76113;SDS011;64845;53.086;5.834;2023-06-14T06:47:48;7.50;;;2.45;;
76113;SDS011;64845;53.086;5.834;2023-06-14T06:50:13;4.68;;;2.17;;
76113;SDS011;64845;53.086;5.834;2023-06-14T06:52:39;4.40;;;2.42;;
76113;SDS011;64845;53.086;5.834;2023-06-14T06:55:05;6.63;;;2.20;;
76113;SDS011;64845;53.086;5.834;2023-06-14T06:57:31;7.65;;;2.67;;
76113;SDS011;64845;53.086;5.834;2023-06-14T06:59:56;5.47;;;2.30;;
76113;SDS011;64845;53.086;5.834;2023-06-14T07:02:22;9.57;;;2.40;;
76113;SDS011;64845;53.086;5.834;2023-06-14T07:04:47;9.20;;;2.28;;
76113;SDS011;64845;53.086;5.834;2023-06-14T07:07:13;4.97;;;1.92;;
76113;SDS011;64845;53.086;5.834;2023-06-14T07:09:38;4.78;;;2.30;;
76113;SDS011;64845;53.086;5.834;2023-06-14T07:12:04;6.53;;;2.10;;
76113;SDS011;64845;53.086;5.834;2023-06-14T07:14:30;7.13;;;2.30;;
76113;SDS011;64845;53.086;5.834;2023-06-14T07:16:55;5.90;;;2.30;;
76113;SDS011;64845;53.086;5.834;2023-06-14T07:19:21;6.50;;;1.92;;
76113;SDS011;64845;53.086;5.834;2023-06-14T07:21:46;9.98;;;2.20;;
76113;SDS011;64845;53.086;5.834;2023-06-14T07:24:12;5.07;;;1.73;;
76113;SDS011;64845;53.086;5.834;2023-06-14T07:26:38;8.82;;;2.50;;
76113;SDS011;64845;53.086;5.834;2023-06-14T07:29:04;3.53;;;1.92;;
76113;SDS011;64845;53.086;5.834;2023-06-14T07:31:30;4.93;;;2.10;;
76113;SDS011;64845;53.086;5.834;2023-06-14T07:33:55;5.55;;;2.10;;
76113;SDS011;64845;53.086;5.834;2023-06-14T07:36:21;4.30;;;1.90;;
76113;SDS011;64845;53.086;5.834;2023-06-14T07:38:47;4.20;;;1.75;;
76113;SDS011;64845;53.086;5.834;2023-06-14T07:41:12;8.38;;;1.85;;
76113;SDS011;64845;53.086;5.834;2023-06-14T07:43:37;6.95;;;1.73;;
76113;SDS011;64845;53.086;5.834;2023-06-14T07:46:03;4.40;;;1.92;;
76113;SDS011;64845;53.086;5.834;2023-06-14T07:48:29;4.85;;;1.80;;
76113;SDS011;64845;53.086;5.834;2023-06-14T07:50:54;4.68;;;1.83;;
76113;SDS011;64845;53.086;5.834;2023-06-14T07:53:20;4.28;;;1.88;;
76113;SDS011;64845;53.086;5.834;2023-06-14T07:55:45;5.63;;;1.70;;
76113;SDS011;64845;53.086;5.834;2023-06-14T07:58:12;6.70;;;2.15;;
76113;SDS011;64845;53.086;5.834;2023-06-14T08:00:37;3.05;;;1.98;;
76113;SDS011;64845;53.086;5.834;2023-06-14T08:03:03;3.60;;;2.28;;
76113;SDS011;64845;53.086;5.834;2023-06-14T08:05:29;6.38;;;1.80;;
76113;SDS011;64845;53.086;5.834;2023-06-14T08:07:54;9.60;;;2.00;;
76113;SDS011;64845;53.086;5.834;2023-06-14T08:10:20;6.85;;;2.00;;
76113;SDS011;64845;53.086;5.834;2023-06-14T08:12:47;4.97;;;2.05;;
76113;SDS011;64845;53.086;5.834;2023-06-14T08:15:15;5.65;;;1.90;;
76113;SDS011;64845;53.086;5.834;2023-06-14T08:17:42;3.20;;;1.83;;
76113;SDS011;64845;53.086;5.834;2023-06-14T08:20:08;6.72;;;1.85;;
76113;SDS011;64845;53.086;5.834;2023-06-14T08:22:33;5.32;;;1.80;;
76113;SDS011;64845;53.086;5.834;2023-06-14T08:24:59;5.53;;;1.88;;
76113;SDS011;64845;53.086;5.834;2023-06-14T08:27:26;6.60;;;1.98;;
76113;SDS011;64845;53.086;5.834;2023-06-14T08:29:51;4.20;;;1.80;;
76113;SDS011;64845;53.086;5.834;2023-06-14T08:32:17;5.03;;;2.03;;
76113;SDS011;64845;53.086;5.834;2023-06-14T08:34:42;2.05;;;1.80;;
76113;SDS011;64845;53.086;5.834;2023-06-14T08:37:07;4.85;;;1.80;;
76113;SDS011;64845;53.086;5.834;2023-06-14T08:39:33;4.10;;;2.05;;
76113;SDS011;64845;53.086;5.834;2023-06-14T08:41:58;2.85;;;1.80;;
76113;SDS011;64845;53.086;5.834;2023-06-14T08:44:27;4.35;;;2.00;;
76113;SDS011;64845;53.086;5.834;2023-06-14T08:46:53;7.47;;;2.03;;
76113;SDS011;64845;53.086;5.834;2023-06-14T08:49:22;5.38;;;1.92;;
76113;SDS011;64845;53.086;5.834;2023-06-14T08:51:50;3.20;;;1.77;;
76113;SDS011;64845;53.086;5.834;2023-06-14T08:54:22;4.45;;;2.00;;
76113;SDS011;64845;53.086;5.834;2023-06-14T08:56:49;3.60;;;2.03;;
76113;SDS011;64845;53.086;5.834;2023-06-14T08:59:16;4.50;;;1.98;;
76113;SDS011;64845;53.086;5.834;2023-06-14T09:01:43;5.05;;;2.10;;
76113;SDS011;64845;53.086;5.834;2023-06-14T09:04:10;10.65;;;2.10;;
76113;SDS011;64845;53.086;5.834;2023-06-14T09:06:35;6.18;;;2.22;;
76113;SDS011;64845;53.086;5.834;2023-06-14T09:09:02;7.15;;;2.00;;
76113;SDS011;64845;53.086;5.834;2023-06-14T09:11:29;6.30;;;2.08;;
76113;SDS011;64845;53.086;5.834;2023-06-14T09:13:55;5.65;;;1.90;;
76113;SDS011;64845;53.086;5.834;2023-06-14T09:16:21;5.53;;;1.90;;
76113;SDS011;64845;53.086;5.834;2023-06-14T09:18:46;6.50;;;1.77;;
76113;SDS011;64845;53.086;5.834;2023-06-14T09:21:13;4.00;;;1.90;;
76113;SDS011;64845;53.086;5.834;2023-06-14T09:23:41;7.50;;;1.70;;
76113;SDS011;64845;53.086;5.834;2023-06-14T09:28:33;9.32;;;2.00;;
76113;SDS011;64845;53.086;5.834;2023-06-14T09:31:00;6.35;;;2.00;;
76113;SDS011;64845;53.086;5.834;2023-06-14T09:33:25;3.08;;;1.95;;
76113;SDS011;64845;53.086;5.834;2023-06-14T09:35:52;14.43;;;2.00;;
76113;SDS011;64845;53.086;5.834;2023-06-14T09:38:19;3.03;;;1.80;;
76113;SDS011;64845;53.086;5.834;2023-06-14T09:40:45;4.32;;;1.80;;
76113;SDS011;64845;53.086;5.834;2023-06-14T09:43:11;5.05;;;2.00;;
76113;SDS011;64845;53.086;5.834;2023-06-14T09:45:36;5.10;;;1.90;;
76113;SDS011;64845;53.086;5.834;2023-06-14T09:48:05;5.97;;;1.90;;
76113;SDS011;64845;53.086;5.834;2023-06-14T09:50:32;4.47;;;1.63;;
76113;SDS011;64845;53.086;5.834;2023-06-14T09:53:06;8.80;;;1.98;;
76113;SDS011;64845;53.086;5.834;2023-06-14T09:55:36;7.22;;;1.80;;
76113;SDS011;64845;53.086;5.834;2023-06-14T09:58:06;4.38;;;1.95;;
76113;SDS011;64845;53.086;5.834;2023-06-14T10:00:32;7.47;;;2.00;;
76113;SDS011;64845;53.086;5.834;2023-06-14T10:03:12;3.95;;;1.73;;
76113;SDS011;64845;53.086;5.834;2023-06-14T10:05:39;4.72;;;1.80;;
76113;SDS011;64845;53.086;5.834;2023-06-14T10:08:08;4.90;;;1.77;;
76113;SDS011;64845;53.086;5.834;2023-06-14T10:10:35;4.63;;;1.70;;
76113;SDS011;64845;53.086;5.834;2023-06-14T10:13:03;3.20;;;1.50;;
76113;SDS011;64845;53.086;5.834;2023-06-14T10:18:11;5.13;;;1.80;;
76113;SDS011;64845;53.086;5.834;2023-06-14T10:21:04;4.80;;;1.90;;
76113;SDS011;64845;53.086;5.834;2023-06-14T10:23:39;6.10;;;1.75;;
76113;SDS011;64845;53.086;5.834;2023-06-14T10:26:07;5.88;;;1.77;;
76113;SDS011;64845;53.086;5.834;2023-06-14T10:28:34;2.13;;;1.70;;
76113;SDS011;64845;53.086;5.834;2023-06-14T10:33:32;8.27;;;1.95;;
76113;SDS011;64845;53.086;5.834;2023-06-14T10:41:41;3.78;;;1.70;;
76113;SDS011;64845;53.086;5.834;2023-06-14T10:46:47;4.03;;;1.95;;
76113;SDS011;64845;53.086;5.834;2023-06-14T10:49:19;6.10;;;1.80;;
76113;SDS011;64845;53.086;5.834;2023-06-14T10:51:51;9.05;;;2.28;;
76113;SDS011;64845;53.086;5.834;2023-06-14T10:54:20;4.55;;;2.00;;
76113;SDS011;64845;53.086;5.834;2023-06-14T10:56:46;4.60;;;1.80;;
76113;SDS011;64845;53.086;5.834;2023-06-14T10:59:13;7.65;;;2.00;;
76113;SDS011;64845;53.086;5.834;2023-06-14T11:01:57;4.20;;;2.10;;
76113;SDS011;64845;53.086;5.834;2023-06-14T11:05:10;8.70;;;2.28;;
76113;SDS011;64845;53.086;5.834;2023-06-14T11:10:28;4.68;;;2.10;;
76113;SDS011;64845;53.086;5.834;2023-06-14T11:13:11;4.07;;;1.70;;
76113;SDS011;64845;53.086;5.834;2023-06-14T11:15:37;6.00;;;2.30;;
76113;SDS011;64845;53.086;5.834;2023-06-14T11:18:04;3.30;;;2.17;;
76113;SDS011;64845;53.086;5.834;2023-06-14T11:20:31;4.65;;;1.88;;
76113;SDS011;64845;53.086;5.834;2023-06-14T11:22:58;7.47;;;1.80;;
76113;SDS011;64845;53.086;5.834;2023-06-14T11:25:24;4.22;;;2.00;;
76113;SDS011;64845;53.086;5.834;2023-06-14T11:27:50;8.82;;;1.88;;
76113;SDS011;64845;53.086;5.834;2023-06-14T11:30:16;6.05;;;2.00;;
76113;SDS011;64845;53.086;5.834;2023-06-14T11:32:41;2.92;;;1.88;;
76113;SDS011;64845;53.086;5.834;2023-06-14T11:35:07;6.32;;;1.98;;
76113;SDS011;64845;53.086;5.834;2023-06-14T11:37:35;2.88;;;1.60;;
76113;SDS011;64845;53.086;5.834;2023-06-14T11:40:02;10.20;;;2.08;;
76113;SDS011;64845;53.086;5.834;2023-06-14T11:42:31;10.95;;;2.00;;
76113;SDS011;64845;53.086;5.834;2023-06-14T11:44:56;11.23;;;2.00;;
76113;SDS011;64845;53.086;5.834;2023-06-14T11:47:22;5.25;;;2.53;;
76113;SDS011;64845;53.086;5.834;2023-06-14T11:49:48;6.60;;;2.00;;
76113;SDS011;64845;53.086;5.834;2023-06-14T11:52:13;5.40;;;1.80;;
76113;SDS011;64845;53.086;5.834;2023-06-14T11:54:39;6.05;;;1.95;;
76113;SDS011;64845;53.086;5.834;2023-06-14T11:57:06;6.00;;;2.00;;
76113;SDS011;64845;53.086;5.834;2023-06-14T11:59:37;6.50;;;2.03;;
76113;SDS011;64845;53.086;5.834;2023-06-14T12:02:03;9.48;;;1.95;;
76113;SDS011;64845;53.086;5.834;2023-06-14T12:04:29;7.35;;;1.92;;
76113;SDS011;64845;53.086;5.834;2023-06-14T12:06:55;4.00;;;1.73;;
76113;SDS011;64845;53.086;5.834;2023-06-14T12:09:22;5.13;;;1.80;;
76113;SDS011;64845;53.086;5.834;2023-06-14T12:11:49;4.75;;;1.65;;
76113;SDS011;64845;53.086;5.834;2023-06-14T12:14:15;6.70;;;1.98;;
76113;SDS011;64845;53.086;5.834;2023-06-14T12:16:41;5.63;;;1.80;;
76113;SDS011;64845;53.086;5.834;2023-06-14T12:19:08;5.70;;;1.45;;
76113;SDS011;64845;53.086;5.834;2023-06-14T12:21:40;3.33;;;1.50;;
76113;SDS011;64845;53.086;5.834;2023-06-14T12:24:07;5.75;;;1.85;;
76113;SDS011;64845;53.086;5.834;2023-06-14T12:26:32;4.88;;;1.90;;
76113;SDS011;64845;53.086;5.834;2023-06-14T12:28:58;4.05;;;1.67;;
76113;SDS011;64845;53.086;5.834;2023-06-14T12:31:24;4.72;;;1.98;;
76113;SDS011;64845;53.086;5.834;2023-06-14T12:33:51;9.65;;;1.77;;
76113;SDS011;64845;53.086;5.834;2023-06-14T12:36:17;6.72;;;1.75;;
76113;SDS011;64845;53.086;5.834;2023-06-14T12:38:42;7.32;;;1.90;;
76113;SDS011;64845;53.086;5.834;2023-06-14T12:41:07;8.45;;;1.58;;
76113;SDS011;64845;53.086;5.834;2023-06-14T12:43:33;5.80;;;1.65;;
76113;SDS011;64845;53.086;5.834;2023-06-14T12:45:59;6.05;;;1.60;;
76113;SDS011;64845;53.086;5.834;2023-06-14T12:48:25;6.45;;;1.60;;
76113;SDS011;64845;53.086;5.834;2023-06-14T12:50:56;7.80;;;1.58;;
76113;SDS011;64845;53.086;5.834;2023-06-14T12:53:21;3.08;;;1.50;;
76113;SDS011;64845;53.086;5.834;2023-06-14T12:55:48;2.92;;;1.60;;
76113;SDS011;64845;53.086;5.834;2023-06-14T12:58:13;3.03;;;1.33;;
76113;SDS011;64845;53.086;5.834;2023-06-14T13:00:39;7.97;;;1.55;;
76113;SDS011;64845;53.086;5.834;2023-06-14T13:03:05;2.63;;;1.42;;
76113;SDS011;64845;53.086;5.834;2023-06-14T13:05:30;3.95;;;1.50;;
76113;SDS011;64845;53.086;5.834;2023-06-14T13:07:58;4.60;;;1.70;;
76113;SDS011;64845;53.086;5.834;2023-06-14T13:10:24;6.15;;;1.50;;
76113;SDS011;64845;53.086;5.834;2023-06-14T13:12:50;5.00;;;1.52;;
76113;SDS011;64845;53.086;5.834;2023-06-14T13:15:16;4.05;;;1.27;;
76113;SDS011;64845;53.086;5.834;2023-06-14T13:17:42;4.13;;;1.30;;
76113;SDS011;64845;53.086;5.834;2023-06-14T13:20:09;5.85;;;1.40;;
76113;SDS011;64845;53.086;5.834;2023-06-14T13:22:35;4.82;;;1.35;;
76113;SDS011;64845;53.086;5.834;2023-06-14T13:25:01;3.92;;;1.25;;
76113;SDS011;64845;53.086;5.834;2023-06-14T13:27:27;3.47;;;1.30;;
76113;SDS011;64845;53.086;5.834;2023-06-14T13:29:53;7.25;;;1.40;;
76113;SDS011;64845;53.086;5.834;2023-06-14T13:32:21;7.25;;;1.40;;
76113;SDS011;64845;53.086;5.834;2023-06-14T13:34:48;3.50;;;1.52;;
76113;SDS011;64845;53.086;5.834;2023-06-14T13:37:13;7.90;;;1.40;;
76113;SDS011;64845;53.086;5.834;2023-06-14T13:39:39;4.50;;;1.20;;
76113;SDS011;64845;53.086;5.834;2023-06-14T13:42:04;8.15;;;1.40;;
76113;SDS011;64845;53.086;5.834;2023-06-14T13:44:30;3.65;;;1.30;;
76113;SDS011;64845;53.086;5.834;2023-06-14T13:46:55;6.82;;;1.55;;
76113;SDS011;64845;53.086;5.834;2023-06-14T13:49:21;10.88;;;1.70;;
76113;SDS011;64845;53.086;5.834;2023-06-14T13:51:47;8.68;;;1.52;;
76113;SDS011;64845;53.086;5.834;2023-06-14T13:54:12;10.90;;;1.80;;
76113;SDS011;64845;53.086;5.834;2023-06-14T13:56:39;4.68;;;1.30;;
76113;SDS011;64845;53.086;5.834;2023-06-14T13:59:05;7.97;;;1.65;;
76113;SDS011;64845;53.086;5.834;2023-06-14T14:01:30;2.85;;;1.30;;
76113;SDS011;64845;53.086;5.834;2023-06-14T14:03:56;9.45;;;1.40;;
76113;SDS011;64845;53.086;5.834;2023-06-14T14:06:21;4.38;;;1.60;;
76113;SDS011;64845;53.086;5.834;2023-06-14T14:08:47;6.50;;;1.50;;
76113;SDS011;64845;53.086;5.834;2023-06-14T14:11:13;6.15;;;1.48;;
76113;SDS011;64845;53.086;5.834;2023-06-14T14:13:38;6.82;;;1.77;;
76113;SDS011;64845;53.086;5.834;2023-06-14T14:16:04;8.80;;;1.77;;
76113;SDS011;64845;53.086;5.834;2023-06-14T14:18:30;2.40;;;1.20;;
76113;SDS011;64845;53.086;5.834;2023-06-14T14:20:57;9.52;;;1.60;;
76113;SDS011;64845;53.086;5.834;2023-06-14T14:23:23;9.27;;;1.85;;
76113;SDS011;64845;53.086;5.834;2023-06-14T14:25:48;3.22;;;1.50;;
76113;SDS011;64845;53.086;5.834;2023-06-14T14:28:13;6.50;;;1.83;;
76113;SDS011;64845;53.086;5.834;2023-06-14T14:30:41;3.00;;;1.58;;
76113;SDS011;64845;53.086;5.834;2023-06-14T14:33:07;4.28;;;1.50;;
76113;SDS011;64845;53.086;5.834;2023-06-14T14:35:33;7.68;;;1.60;;
76113;SDS011;64845;53.086;5.834;2023-06-14T14:37:58;9.02;;;1.67;;
76113;SDS011;64845;53.086;5.834;2023-06-14T14:40:24;3.97;;;1.30;;
76113;SDS011;64845;53.086;5.834;2023-06-14T14:42:49;3.92;;;1.20;;
76113;SDS011;64845;53.086;5.834;2023-06-14T14:45:15;1.67;;;1.20;;
76113;SDS011;64845;53.086;5.834;2023-06-14T14:47:40;5.32;;;1.60;;
76113;SDS011;64845;53.086;5.834;2023-06-14T14:50:05;7.57;;;1.60;;
76113;SDS011;64845;53.086;5.834;2023-06-14T14:52:34;2.85;;;1.30;;
76113;SDS011;64845;53.086;5.834;2023-06-14T14:55:00;4.45;;;1.63;;
76113;SDS011;64845;53.086;5.834;2023-06-14T14:57:26;2.50;;;1.55;;
76113;SDS011;64845;53.086;5.834;2023-06-14T14:59:51;3.83;;;1.70;;
76113;SDS011;64845;53.086;5.834;2023-06-14T15:02:17;5.55;;;1.70;;
76113;SDS011;64845;53.086;5.834;2023-06-14T15:04:42;1.65;;;1.40;;
76113;SDS011;64845;53.086;5.834;2023-06-14T15:07:08;5.68;;;1.40;;
76113;SDS011;64845;53.086;5.834;2023-06-14T15:09:33;5.85;;;1.40;;